IGO7556 OERK-OEDF
Flight info
| Callsign | IGO7556 |
|---|---|
| Flight time | N/A |
| Altitude | 19000 |
| Route | ORNIP1D/33R ORNIP H976 MUSRI L604 UMENA |
| Aircraft | A20N/M-SDE2E3FGHIRWXY/LB1 |
Departure
| Time | N/A |
|---|---|
| Airport | King Khalid International Airport (OERK) |
Arrival
| Time | 2026-05-08 18:22 |
|---|---|
| Airport | King Fahd International Airport (OEDF) |
| Time | Latitude | Longitude | Altitude | Speed | Heading |
|---|---|---|---|---|---|
| 2026-05-08 18:22 | 26.47298 | 49.81065 | 66 ft | 24 kts | 161° |
| 2026-05-08 18:22 | 26.47123 | 49.81119 | 72 ft | 27 kts | 165° |
| 2026-05-08 18:23 | 26.46808 | 49.81213 | 71 ft | 57 kts | 165° |
| 2026-05-08 18:23 | 26.46436 | 49.81331 | 81 ft | 44 kts | 164° |
| 2026-05-08 18:23 | 26.46374 | 49.81321 | 85 ft | 9 kts | 261° |
| 2026-05-08 18:23 | 26.46379 | 49.81293 | 84 ft | 0 kts | 282° |
| 2026-05-08 18:28 | 26.46380 | 49.81289 | 85 ft | 5 kts | 280° |
| 2026-05-08 18:29 | 26.46389 | 49.81267 | 82 ft | 5 kts | 311° |
| 2026-05-08 18:29 | 26.46428 | 49.81286 | 83 ft | 11 kts | 42° |
| 2026-05-08 18:29 | 26.46493 | 49.81329 | 83 ft | 12 kts | 11° |
| 2026-05-08 18:29 | 26.46577 | 49.81294 | 83 ft | 16 kts | 334° |
| 2026-05-08 18:30 | 26.46756 | 49.81228 | 81 ft | 38 kts | 344° |
| 2026-05-08 18:30 | 26.47069 | 49.81126 | 69 ft | 52 kts | 344° |
| 2026-05-08 18:30 | 26.47419 | 49.81024 | 69 ft | 51 kts | 343° |
| 2026-05-08 18:30 | 26.47753 | 49.80920 | 70 ft | 48 kts | 345° |
| 2026-05-08 18:31 | 26.47868 | 49.80887 | 70 ft | 0 kts | 345° |
| 2026-05-08 18:31 | 26.47923 | 49.80863 | 68 ft | 0 kts | 307° |
| 2026-05-08 18:31 | 26.47932 | 49.80756 | 70 ft | 19 kts | 239° |
| 2026-05-08 18:32 | 26.47865 | 49.80492 | 67 ft | 45 kts | 258° |
| 2026-05-08 18:32 | 26.47787 | 49.80166 | 65 ft | 32 kts | 253° |
| 2026-05-08 18:32 | 26.47733 | 49.79951 | 71 ft | 29 kts | 255° |
| 2026-05-08 18:32 | 26.47678 | 49.79724 | 66 ft | 31 kts | 253° |
| 2026-05-08 18:33 | 26.47618 | 49.79488 | 63 ft | 33 kts | 254° |
| 2026-05-08 18:33 | 26.47583 | 49.79351 | 61 ft | 10 kts | 254° |
| 2026-05-08 18:33 | 26.47552 | 49.79221 | 65 ft | 28 kts | 260° |
| 2026-05-08 18:33 | 26.47489 | 49.79110 | 60 ft | 3 kts | 175° |
| 2026-05-08 18:34 | 26.47340 | 49.79162 | 59 ft | 29 kts | 157° |
| 2026-05-08 18:34 | 26.47154 | 49.79257 | 63 ft | 25 kts | 151° |
| 2026-05-08 18:34 | 26.47020 | 49.79330 | 64 ft | 10 kts | 154° |
| 2026-05-08 18:34 | 26.46950 | 49.79371 | 66 ft | 12 kts | 143° |
| 2026-05-08 18:35 | 26.46944 | 49.79449 | 60 ft | 11 kts | 64° |
| 2026-05-08 18:35 | 26.46957 | 49.79480 | 60 ft | 0 kts | 64° |